sensor_id;sensor_type;location;lat;lon;timestamp;P1;durP1;ratioP1;P2;durP2;ratioP2
56285;SDS011;42191;47.562;9.686;2023-04-25T00:02:00;35.85;;;33.65;;
56285;SDS011;42191;47.562;9.686;2023-04-25T00:04:26;36.72;;;34.47;;
56285;SDS011;42191;47.562;9.686;2023-04-25T00:06:54;34.25;;;32.15;;
56285;SDS011;42191;47.562;9.686;2023-04-25T00:09:21;36.60;;;34.40;;
56285;SDS011;42191;47.562;9.686;2023-04-25T00:11:47;36.80;;;34.42;;
56285;SDS011;42191;47.562;9.686;2023-04-25T00:14:13;35.20;;;33.10;;
56285;SDS011;42191;47.562;9.686;2023-04-25T00:16:41;35.30;;;33.20;;
56285;SDS011;42191;47.562;9.686;2023-04-25T00:19:09;36.08;;;33.88;;
56285;SDS011;42191;47.562;9.686;2023-04-25T00:21:35;35.28;;;33.15;;
56285;SDS011;42191;47.562;9.686;2023-04-25T00:24:05;37.17;;;34.88;;
56285;SDS011;42191;47.562;9.686;2023-04-25T00:26:33;38.38;;;35.97;;
56285;SDS011;42191;47.562;9.686;2023-04-25T00:29:00;36.15;;;33.75;;
56285;SDS011;42191;47.562;9.686;2023-04-25T00:31:27;35.22;;;33.03;;
56285;SDS011;42191;47.562;9.686;2023-04-25T00:33:54;36.00;;;33.80;;
56285;SDS011;42191;47.562;9.686;2023-04-25T00:36:20;36.15;;;33.90;;
56285;SDS011;42191;47.562;9.686;2023-04-25T00:38:47;38.08;;;35.78;;
56285;SDS011;42191;47.562;9.686;2023-04-25T00:41:13;36.60;;;34.20;;
56285;SDS011;42191;47.562;9.686;2023-04-25T00:43:40;36.58;;;34.35;;
56285;SDS011;42191;47.562;9.686;2023-04-25T00:46:07;37.15;;;34.42;;
56285;SDS011;42191;47.562;9.686;2023-04-25T00:48:33;37.05;;;34.75;;
56285;SDS011;42191;47.562;9.686;2023-04-25T00:50:59;37.65;;;35.35;;
56285;SDS011;42191;47.562;9.686;2023-04-25T00:53:27;37.35;;;35.00;;
56285;SDS011;42191;47.562;9.686;2023-04-25T00:55:55;37.95;;;35.53;;
56285;SDS011;42191;47.562;9.686;2023-04-25T00:58:21;36.97;;;34.67;;
56285;SDS011;42191;47.562;9.686;2023-04-25T01:00:48;36.13;;;33.92;;
56285;SDS011;42191;47.562;9.686;2023-04-25T01:03:17;36.78;;;34.45;;
56285;SDS011;42191;47.562;9.686;2023-04-25T01:05:45;33.67;;;31.60;;
56285;SDS011;42191;47.562;9.686;2023-04-25T01:08:13;36.55;;;34.25;;
56285;SDS011;42191;47.562;9.686;2023-04-25T01:10:39;36.15;;;33.95;;
56285;SDS011;42191;47.562;9.686;2023-04-25T01:13:06;37.60;;;35.30;;
56285;SDS011;42191;47.562;9.686;2023-04-25T01:15:33;37.17;;;34.92;;
56285;SDS011;42191;47.562;9.686;2023-04-25T01:18:00;36.00;;;33.75;;
56285;SDS011;42191;47.562;9.686;2023-04-25T01:20:27;36.92;;;34.72;;
56285;SDS011;42191;47.562;9.686;2023-04-25T01:22:56;35.72;;;33.53;;
56285;SDS011;42191;47.562;9.686;2023-04-25T01:25:22;34.70;;;32.40;;
56285;SDS011;42191;47.562;9.686;2023-04-25T01:27:49;36.80;;;34.53;;
56285;SDS011;42191;47.562;9.686;2023-04-25T01:30:15;38.17;;;35.85;;
56285;SDS011;42191;47.562;9.686;2023-04-25T01:32:42;37.88;;;35.58;;
56285;SDS011;42191;47.562;9.686;2023-04-25T01:35:09;37.00;;;34.70;;
56285;SDS011;42191;47.562;9.686;2023-04-25T01:37:40;37.03;;;34.75;;
56285;SDS011;42191;47.562;9.686;2023-04-25T01:40:08;34.60;;;32.40;;
56285;SDS011;42191;47.562;9.686;2023-04-25T01:42:36;38.30;;;36.00;;
56285;SDS011;42191;47.562;9.686;2023-04-25T01:45:03;38.15;;;35.78;;
56285;SDS011;42191;47.562;9.686;2023-04-25T01:47:31;36.33;;;34.13;;
56285;SDS011;42191;47.562;9.686;2023-04-25T01:49:57;37.53;;;35.25;;
56285;SDS011;42191;47.562;9.686;2023-04-25T01:52:23;38.35;;;35.95;;
56285;SDS011;42191;47.562;9.686;2023-04-25T01:54:49;36.47;;;34.17;;
56285;SDS011;42191;47.562;9.686;2023-04-25T01:57:17;36.10;;;33.78;;
56285;SDS011;42191;47.562;9.686;2023-04-25T01:59:43;37.15;;;34.90;;
56285;SDS011;42191;47.562;9.686;2023-04-25T02:02:09;37.22;;;34.92;;
56285;SDS011;42191;47.562;9.686;2023-04-25T02:04:35;36.47;;;34.28;;
56285;SDS011;42191;47.562;9.686;2023-04-25T02:07:02;38.10;;;35.72;;
56285;SDS011;42191;47.562;9.686;2023-04-25T02:09:29;39.00;;;36.55;;
56285;SDS011;42191;47.562;9.686;2023-04-25T02:11:55;36.97;;;34.50;;
56285;SDS011;42191;47.562;9.686;2023-04-25T02:14:21;35.53;;;33.33;;
56285;SDS011;42191;47.562;9.686;2023-04-25T02:16:47;36.47;;;34.20;;
56285;SDS011;42191;47.562;9.686;2023-04-25T02:19:14;36.88;;;34.63;;
56285;SDS011;42191;47.562;9.686;2023-04-25T02:21:40;36.50;;;34.08;;
56285;SDS011;42191;47.562;9.686;2023-04-25T02:24:06;37.15;;;34.70;;
56285;SDS011;42191;47.562;9.686;2023-04-25T02:26:33;37.30;;;34.90;;
56285;SDS011;42191;47.562;9.686;2023-04-25T02:28:59;36.75;;;34.55;;
56285;SDS011;42191;47.562;9.686;2023-04-25T02:31:26;34.80;;;32.58;;
56285;SDS011;42191;47.562;9.686;2023-04-25T02:33:52;36.85;;;34.58;;
56285;SDS011;42191;47.562;9.686;2023-04-25T02:36:18;37.60;;;35.30;;
56285;SDS011;42191;47.562;9.686;2023-04-25T02:38:44;36.55;;;34.35;;
56285;SDS011;42191;47.562;9.686;2023-04-25T02:41:10;35.83;;;33.65;;
56285;SDS011;42191;47.562;9.686;2023-04-25T02:43:36;36.53;;;34.17;;
56285;SDS011;42191;47.562;9.686;2023-04-25T02:46:03;36.95;;;34.63;;
56285;SDS011;42191;47.562;9.686;2023-04-25T02:48:29;36.55;;;34.15;;
56285;SDS011;42191;47.562;9.686;2023-04-25T02:50:55;35.78;;;33.58;;
56285;SDS011;42191;47.562;9.686;2023-04-25T02:53:21;36.22;;;33.95;;
56285;SDS011;42191;47.562;9.686;2023-04-25T02:55:47;37.30;;;35.00;;
56285;SDS011;42191;47.562;9.686;2023-04-25T02:58:13;35.88;;;33.67;;
56285;SDS011;42191;47.562;9.686;2023-04-25T03:00:40;37.03;;;34.63;;
56285;SDS011;42191;47.562;9.686;2023-04-25T03:03:06;35.50;;;33.20;;
56285;SDS011;42191;47.562;9.686;2023-04-25T03:05:32;37.03;;;34.70;;
56285;SDS011;42191;47.562;9.686;2023-04-25T03:07:59;35.10;;;32.80;;
56285;SDS011;42191;47.562;9.686;2023-04-25T03:10:25;37.40;;;35.03;;
56285;SDS011;42191;47.562;9.686;2023-04-25T03:12:51;37.63;;;35.22;;
56285;SDS011;42191;47.562;9.686;2023-04-25T03:15:17;37.20;;;34.88;;
56285;SDS011;42191;47.562;9.686;2023-04-25T03:17:43;37.22;;;34.83;;
56285;SDS011;42191;47.562;9.686;2023-04-25T03:20:10;38.15;;;35.75;;
56285;SDS011;42191;47.562;9.686;2023-04-25T03:22:36;38.28;;;35.78;;
56285;SDS011;42191;47.562;9.686;2023-04-25T03:25:03;36.22;;;34.03;;
56285;SDS011;42191;47.562;9.686;2023-04-25T03:27:30;37.25;;;34.95;;
56285;SDS011;42191;47.562;9.686;2023-04-25T03:29:56;38.45;;;36.13;;
56285;SDS011;42191;47.562;9.686;2023-04-25T03:32:22;38.38;;;35.88;;
56285;SDS011;42191;47.562;9.686;2023-04-25T03:34:48;37.85;;;35.55;;
56285;SDS011;42191;47.562;9.686;2023-04-25T03:37:14;36.33;;;34.15;;
56285;SDS011;42191;47.562;9.686;2023-04-25T03:39:40;37.17;;;34.78;;
56285;SDS011;42191;47.562;9.686;2023-04-25T03:42:06;37.05;;;34.67;;
56285;SDS011;42191;47.562;9.686;2023-04-25T03:44:32;37.35;;;35.05;;
56285;SDS011;42191;47.562;9.686;2023-04-25T03:46:58;37.10;;;34.83;;
56285;SDS011;42191;47.562;9.686;2023-04-25T03:49:25;37.20;;;34.90;;
56285;SDS011;42191;47.562;9.686;2023-04-25T03:51:51;37.95;;;35.60;;
56285;SDS011;42191;47.562;9.686;2023-04-25T03:54:17;37.80;;;35.22;;
56285;SDS011;42191;47.562;9.686;2023-04-25T03:56:43;38.53;;;36.00;;
56285;SDS011;42191;47.562;9.686;2023-04-25T03:59:09;38.13;;;35.78;;
56285;SDS011;42191;47.562;9.686;2023-04-25T04:01:35;38.78;;;36.15;;
56285;SDS011;42191;47.562;9.686;2023-04-25T04:04:01;37.78;;;35.40;;
56285;SDS011;42191;47.562;9.686;2023-04-25T04:06:28;37.08;;;34.75;;
56285;SDS011;42191;47.562;9.686;2023-04-25T04:08:54;38.10;;;35.75;;
56285;SDS011;42191;47.562;9.686;2023-04-25T04:11:20;37.75;;;35.40;;
56285;SDS011;42191;47.562;9.686;2023-04-25T04:13:46;37.53;;;35.13;;
56285;SDS011;42191;47.562;9.686;2023-04-25T04:16:12;37.17;;;34.85;;
56285;SDS011;42191;47.562;9.686;2023-04-25T04:18:38;38.75;;;36.35;;
56285;SDS011;42191;47.562;9.686;2023-04-25T04:21:04;37.60;;;35.20;;
56285;SDS011;42191;47.562;9.686;2023-04-25T04:23:31;37.08;;;34.58;;
56285;SDS011;42191;47.562;9.686;2023-04-25T04:26:01;37.30;;;34.90;;
56285;SDS011;42191;47.562;9.686;2023-04-25T04:28:28;37.55;;;35.17;;
56285;SDS011;42191;47.562;9.686;2023-04-25T04:33:27;39.10;;;36.42;;
56285;SDS011;42191;47.562;9.686;2023-04-25T04:36:01;38.67;;;36.15;;
56285;SDS011;42191;47.562;9.686;2023-04-25T04:38:28;38.33;;;35.85;;
56285;SDS011;42191;47.562;9.686;2023-04-25T04:40:55;39.22;;;36.65;;
56285;SDS011;42191;47.562;9.686;2023-04-25T04:43:21;41.45;;;38.35;;
56285;SDS011;42191;47.562;9.686;2023-04-25T04:45:48;42.50;;;39.47;;
56285;SDS011;42191;47.562;9.686;2023-04-25T04:48:15;40.50;;;37.60;;
56285;SDS011;42191;47.562;9.686;2023-04-25T04:50:44;38.60;;;36.05;;
56285;SDS011;42191;47.562;9.686;2023-04-25T04:53:11;36.70;;;34.30;;
56285;SDS011;42191;47.562;9.686;2023-04-25T04:55:37;37.83;;;35.42;;
56285;SDS011;42191;47.562;9.686;2023-04-25T04:58:04;38.40;;;35.70;;
56285;SDS011;42191;47.562;9.686;2023-04-25T05:00:30;39.63;;;37.03;;
56285;SDS011;42191;47.562;9.686;2023-04-25T05:02:56;38.63;;;36.13;;
56285;SDS011;42191;47.562;9.686;2023-04-25T05:05:23;36.35;;;33.95;;
56285;SDS011;42191;47.562;9.686;2023-04-25T05:07:49;38.08;;;35.72;;
56285;SDS011;42191;47.562;9.686;2023-04-25T05:10:17;38.53;;;36.10;;
56285;SDS011;42191;47.562;9.686;2023-04-25T05:12:43;37.70;;;35.40;;
56285;SDS011;42191;47.562;9.686;2023-04-25T05:15:10;38.60;;;36.10;;
56285;SDS011;42191;47.562;9.686;2023-04-25T05:17:36;38.28;;;35.85;;
56285;SDS011;42191;47.562;9.686;2023-04-25T05:20:04;39.17;;;36.50;;
56285;SDS011;42191;47.562;9.686;2023-04-25T05:22:32;37.97;;;35.50;;
56285;SDS011;42191;47.562;9.686;2023-04-25T05:25:00;37.20;;;34.90;;
56285;SDS011;42191;47.562;9.686;2023-04-25T05:27:26;38.85;;;36.35;;
56285;SDS011;42191;47.562;9.686;2023-04-25T05:29:52;36.95;;;34.65;;
56285;SDS011;42191;47.562;9.686;2023-04-25T05:32:18;38.50;;;36.10;;
56285;SDS011;42191;47.562;9.686;2023-04-25T05:34:44;38.92;;;36.58;;
56285;SDS011;42191;47.562;9.686;2023-04-25T05:37:10;38.20;;;35.78;;
56285;SDS011;42191;47.562;9.686;2023-04-25T05:39:37;39.47;;;36.65;;
56285;SDS011;42191;47.562;9.686;2023-04-25T05:42:03;37.80;;;35.17;;
56285;SDS011;42191;47.562;9.686;2023-04-25T05:44:30;37.90;;;35.30;;
56285;SDS011;42191;47.562;9.686;2023-04-25T05:46:56;38.08;;;35.67;;
56285;SDS011;42191;47.562;9.686;2023-04-25T05:49:22;37.00;;;34.70;;
56285;SDS011;42191;47.562;9.686;2023-04-25T05:51:49;37.85;;;35.35;;
56285;SDS011;42191;47.562;9.686;2023-04-25T05:54:15;36.83;;;34.38;;
56285;SDS011;42191;47.562;9.686;2023-04-25T05:56:41;37.38;;;34.97;;
56285;SDS011;42191;47.562;9.686;2023-04-25T05:59:07;38.65;;;35.83;;
56285;SDS011;42191;47.562;9.686;2023-04-25T06:01:33;37.75;;;35.33;;
56285;SDS011;42191;47.562;9.686;2023-04-25T06:03:59;35.58;;;33.28;;
56285;SDS011;42191;47.562;9.686;2023-04-25T06:06:26;37.28;;;34.88;;
56285;SDS011;42191;47.562;9.686;2023-04-25T06:08:52;36.95;;;34.55;;
56285;SDS011;42191;47.562;9.686;2023-04-25T06:11:20;36.97;;;34.60;;
56285;SDS011;42191;47.562;9.686;2023-04-25T06:13:46;35.92;;;33.63;;
56285;SDS011;42191;47.562;9.686;2023-04-25T06:16:12;37.40;;;35.00;;
56285;SDS011;42191;47.562;9.686;2023-04-25T06:18:38;35.42;;;33.25;;
56285;SDS011;42191;47.562;9.686;2023-04-25T06:21:05;37.40;;;34.90;;
56285;SDS011;42191;47.562;9.686;2023-04-25T06:23:31;37.13;;;34.78;;
56285;SDS011;42191;47.562;9.686;2023-04-25T06:25:57;37.67;;;35.28;;
56285;SDS011;42191;47.562;9.686;2023-04-25T06:28:23;37.70;;;35.10;;
56285;SDS011;42191;47.562;9.686;2023-04-25T06:30:50;36.20;;;33.78;;
56285;SDS011;42191;47.562;9.686;2023-04-25T06:33:16;35.80;;;33.58;;
56285;SDS011;42191;47.562;9.686;2023-04-25T06:35:42;37.15;;;34.83;;
56285;SDS011;42191;47.562;9.686;2023-04-25T06:38:08;37.10;;;34.60;;
56285;SDS011;42191;47.562;9.686;2023-04-25T06:40:35;37.67;;;35.38;;
56285;SDS011;42191;47.562;9.686;2023-04-25T06:43:01;34.58;;;32.47;;
56285;SDS011;42191;47.562;9.686;2023-04-25T06:45:27;35.42;;;33.20;;
56285;SDS011;42191;47.562;9.686;2023-04-25T06:47:53;36.22;;;33.92;;
56285;SDS011;42191;47.562;9.686;2023-04-25T06:50:19;35.60;;;33.17;;
56285;SDS011;42191;47.562;9.686;2023-04-25T06:52:46;36.92;;;34.53;;
56285;SDS011;42191;47.562;9.686;2023-04-25T06:55:12;37.38;;;35.08;;
56285;SDS011;42191;47.562;9.686;2023-04-25T06:57:38;37.17;;;34.72;;
56285;SDS011;42191;47.562;9.686;2023-04-25T07:00:04;36.58;;;34.38;;
56285;SDS011;42191;47.562;9.686;2023-04-25T07:02:34;36.55;;;33.90;;
56285;SDS011;42191;47.562;9.686;2023-04-25T07:05:00;36.80;;;34.50;;
56285;SDS011;42191;47.562;9.686;2023-04-25T07:07:29;34.95;;;32.75;;
56285;SDS011;42191;47.562;9.686;2023-04-25T07:09:55;34.58;;;32.38;;
56285;SDS011;42191;47.562;9.686;2023-04-25T07:12:21;35.17;;;32.97;;
56285;SDS011;42191;47.562;9.686;2023-04-25T07:14:48;33.88;;;31.73;;
56285;SDS011;42191;47.562;9.686;2023-04-25T07:17:14;36.10;;;33.92;;
56285;SDS011;42191;47.562;9.686;2023-04-25T07:19:40;34.92;;;32.63;;
56285;SDS011;42191;47.562;9.686;2023-04-25T07:22:07;33.88;;;31.77;;
56285;SDS011;42191;47.562;9.686;2023-04-25T07:24:33;35.75;;;33.28;;
56285;SDS011;42191;47.562;9.686;2023-04-25T07:26:59;34.83;;;32.60;;
56285;SDS011;42191;47.562;9.686;2023-04-25T07:29:26;34.97;;;32.83;;
56285;SDS011;42191;47.562;9.686;2023-04-25T07:31:52;34.45;;;32.35;;
56285;SDS011;42191;47.562;9.686;2023-04-25T07:34:18;35.40;;;33.20;;
56285;SDS011;42191;47.562;9.686;2023-04-25T07:36:45;34.72;;;32.35;;
56285;SDS011;42191;47.562;9.686;2023-04-25T07:39:11;35.55;;;33.35;;
56285;SDS011;42191;47.562;9.686;2023-04-25T07:41:37;33.63;;;31.63;;
56285;SDS011;42191;47.562;9.686;2023-04-25T07:44:03;34.22;;;32.05;;
56285;SDS011;42191;47.562;9.686;2023-04-25T07:46:29;32.22;;;30.15;;
56285;SDS011;42191;47.562;9.686;2023-04-25T07:48:56;34.63;;;32.40;;
56285;SDS011;42191;47.562;9.686;2023-04-25T07:51:22;33.47;;;31.45;;
56285;SDS011;42191;47.562;9.686;2023-04-25T07:53:48;33.83;;;31.52;;
56285;SDS011;42191;47.562;9.686;2023-04-25T07:56:14;33.67;;;31.48;;
56285;SDS011;42191;47.562;9.686;2023-04-25T07:58:40;33.92;;;31.85;;
56285;SDS011;42191;47.562;9.686;2023-04-25T08:01:06;34.17;;;32.03;;
56285;SDS011;42191;47.562;9.686;2023-04-25T08:03:33;32.92;;;30.92;;
56285;SDS011;42191;47.562;9.686;2023-04-25T08:05:59;34.92;;;32.60;;
56285;SDS011;42191;47.562;9.686;2023-04-25T08:08:25;36.05;;;33.60;;
56285;SDS011;42191;47.562;9.686;2023-04-25T08:10:51;37.30;;;34.50;;
56285;SDS011;42191;47.562;9.686;2023-04-25T08:13:18;34.10;;;31.80;;
56285;SDS011;42191;47.562;9.686;2023-04-25T08:15:44;37.72;;;35.05;;
56285;SDS011;42191;47.562;9.686;2023-04-25T08:18:10;34.35;;;31.95;;
56285;SDS011;42191;47.562;9.686;2023-04-25T08:20:36;37.35;;;34.58;;
56285;SDS011;42191;47.562;9.686;2023-04-25T08:23:02;36.85;;;34.22;;
56285;SDS011;42191;47.562;9.686;2023-04-25T08:25:28;37.30;;;34.80;;
56285;SDS011;42191;47.562;9.686;2023-04-25T08:27:55;36.83;;;34.50;;
56285;SDS011;42191;47.562;9.686;2023-04-25T08:30:22;35.85;;;33.65;;
56285;SDS011;42191;47.562;9.686;2023-04-25T08:32:48;35.75;;;33.55;;
56285;SDS011;42191;47.562;9.686;2023-04-25T08:35:14;37.13;;;34.80;;
56285;SDS011;42191;47.562;9.686;2023-04-25T08:37:42;35.97;;;33.88;;
56285;SDS011;42191;47.562;9.686;2023-04-25T08:40:09;36.13;;;33.83;;
56285;SDS011;42191;47.562;9.686;2023-04-25T08:42:39;36.95;;;34.70;;
56285;SDS011;42191;47.562;9.686;2023-04-25T08:45:07;38.92;;;35.78;;
56285;SDS011;42191;47.562;9.686;2023-04-25T08:47:34;38.83;;;36.35;;
56285;SDS011;42191;47.562;9.686;2023-04-25T08:50:03;37.10;;;34.78;;
56285;SDS011;42191;47.562;9.686;2023-04-25T08:52:34;37.85;;;35.53;;
56285;SDS011;42191;47.562;9.686;2023-04-25T08:55:03;37.30;;;35.10;;
56285;SDS011;42191;47.562;9.686;2023-04-25T08:57:31;38.53;;;36.15;;
56285;SDS011;42191;47.562;9.686;2023-04-25T08:59:59;36.88;;;34.47;;
56285;SDS011;42191;47.562;9.686;2023-04-25T09:02:26;37.78;;;35.53;;
56285;SDS011;42191;47.562;9.686;2023-04-25T09:04:52;38.90;;;36.53;;
56285;SDS011;42191;47.562;9.686;2023-04-25T09:07:20;36.85;;;34.55;;
56285;SDS011;42191;47.562;9.686;2023-04-25T09:09:46;38.42;;;36.00;;
56285;SDS011;42191;47.562;9.686;2023-04-25T09:12:12;37.65;;;35.45;;
56285;SDS011;42191;47.562;9.686;2023-04-25T09:14:39;37.95;;;35.55;;
56285;SDS011;42191;47.562;9.686;2023-04-25T09:17:07;38.05;;;35.75;;
56285;SDS011;42191;47.562;9.686;2023-04-25T09:19:34;37.20;;;34.90;;
56285;SDS011;42191;47.562;9.686;2023-04-25T09:22:02;36.70;;;34.50;;
56285;SDS011;42191;47.562;9.686;2023-04-25T09:27:04;37.47;;;35.07;;
56285;SDS011;42191;47.562;9.686;2023-04-25T09:29:36;36.00;;;33.85;;
56285;SDS011;42191;47.562;9.686;2023-04-25T09:32:22;36.75;;;34.55;;
56285;SDS011;42191;47.562;9.686;2023-04-25T09:34:50;36.60;;;34.40;;
56285;SDS011;42191;47.562;9.686;2023-04-25T09:37:21;34.83;;;32.63;;
56285;SDS011;42191;47.562;9.686;2023-04-25T09:39:49;35.58;;;33.30;;
56285;SDS011;42191;47.562;9.686;2023-04-25T09:42:18;33.80;;;31.80;;
56285;SDS011;42191;47.562;9.686;2023-04-25T09:44:49;38.10;;;35.80;;
56285;SDS011;42191;47.562;9.686;2023-04-25T09:47:21;35.53;;;33.33;;
56285;SDS011;42191;47.562;9.686;2023-04-25T09:49:49;37.17;;;34.88;;
56285;SDS011;42191;47.562;9.686;2023-04-25T09:52:17;35.33;;;33.22;;
56285;SDS011;42191;47.562;9.686;2023-04-25T09:54:50;36.78;;;34.58;;
56285;SDS011;42191;47.562;9.686;2023-04-25T09:59:51;34.90;;;32.83;;
56285;SDS011;42191;47.562;9.686;2023-04-25T10:02:19;35.58;;;33.47;;
56285;SDS011;42191;47.562;9.686;2023-04-25T10:04:51;36.28;;;34.08;;
56285;SDS011;42191;47.562;9.686;2023-04-25T10:07:20;34.55;;;32.50;;
56285;SDS011;42191;47.562;9.686;2023-04-25T10:09:50;36.60;;;34.40;;
56285;SDS011;42191;47.562;9.686;2023-04-25T10:12:21;35.35;;;33.25;;
56285;SDS011;42191;47.562;9.686;2023-04-25T10:14:47;35.15;;;33.05;;
56285;SDS011;42191;47.562;9.686;2023-04-25T10:17:14;36.20;;;34.00;;
56285;SDS011;42191;47.562;9.686;2023-04-25T10:19:40;35.35;;;33.28;;
56285;SDS011;42191;47.562;9.686;2023-04-25T10:22:07;36.95;;;34.75;;
56285;SDS011;42191;47.562;9.686;2023-04-25T10:24:48;35.63;;;33.47;;
56285;SDS011;42191;47.562;9.686;2023-04-25T10:27:15;37.53;;;35.22;;
56285;SDS011;42191;47.562;9.686;2023-04-25T10:29:43;37.10;;;34.80;;
56285;SDS011;42191;47.562;9.686;2023-04-25T10:32:09;36.50;;;34.30;;
56285;SDS011;42191;47.562;9.686;2023-04-25T10:34:39;35.83;;;33.53;;
56285;SDS011;42191;47.562;9.686;2023-04-25T10:37:10;37.22;;;34.83;;
56285;SDS011;42191;47.562;9.686;2023-04-25T10:39:37;36.22;;;33.92;;
56285;SDS011;42191;47.562;9.686;2023-04-25T10:42:05;37.00;;;34.70;;
56285;SDS011;42191;47.562;9.686;2023-04-25T10:44:33;37.42;;;35.15;;
56285;SDS011;42191;47.562;9.686;2023-04-25T10:47:00;39.10;;;36.63;;
56285;SDS011;42191;47.562;9.686;2023-04-25T10:49:35;36.03;;;33.75;;
56285;SDS011;42191;47.562;9.686;2023-04-25T10:54:41;36.30;;;34.13;;
56285;SDS011;42191;47.562;9.686;2023-04-25T11:02:43;36.45;;;34.08;;
56285;SDS011;42191;47.562;9.686;2023-04-25T11:05:19;37.38;;;35.08;;
56285;SDS011;42191;47.562;9.686;2023-04-25T11:08:09;36.03;;;33.78;;
56285;SDS011;42191;47.562;9.686;2023-04-25T11:13:05;34.78;;;32.58;;
56285;SDS011;42191;47.562;9.686;2023-04-25T11:15:31;35.42;;;33.13;;
56285;SDS011;42191;47.562;9.686;2023-04-25T11:17:57;36.25;;;33.95;;
56285;SDS011;42191;47.562;9.686;2023-04-25T11:20:25;36.58;;;34.38;;
56285;SDS011;42191;47.562;9.686;2023-04-25T11:22:53;34.85;;;32.65;;
56285;SDS011;42191;47.562;9.686;2023-04-25T11:25:22;35.13;;;32.92;;
56285;SDS011;42191;47.562;9.686;2023-04-25T11:30:16;37.00;;;34.75;;
56285;SDS011;42191;47.562;9.686;2023-04-25T11:32:43;34.42;;;32.33;;
56285;SDS011;42191;47.562;9.686;2023-04-25T11:35:09;35.42;;;33.22;;
56285;SDS011;42191;47.562;9.686;2023-04-25T11:37:36;35.63;;;33.53;;
56285;SDS011;42191;47.562;9.686;2023-04-25T11:40:05;35.03;;;32.90;;
56285;SDS011;42191;47.562;9.686;2023-04-25T11:42:33;35.30;;;33.20;;
56285;SDS011;42191;47.562;9.686;2023-04-25T11:45:03;34.83;;;32.72;;
56285;SDS011;42191;47.562;9.686;2023-04-25T11:47:30;32.90;;;30.98;;
56285;SDS011;42191;47.562;9.686;2023-04-25T11:49:58;34.45;;;32.45;;
56285;SDS011;42191;47.562;9.686;2023-04-25T11:52:34;36.28;;;34.10;;
56285;SDS011;42191;47.562;9.686;2023-04-25T11:57:35;35.38;;;33.28;;
56285;SDS011;42191;47.562;9.686;2023-04-25T12:00:21;35.53;;;33.42;;
56285;SDS011;42191;47.562;9.686;2023-04-25T12:02:51;35.13;;;33.03;;
56285;SDS011;42191;47.562;9.686;2023-04-25T12:05:18;35.20;;;33.15;;
56285;SDS011;42191;47.562;9.686;2023-04-25T12:07:45;34.42;;;32.42;;
56285;SDS011;42191;47.562;9.686;2023-04-25T12:10:12;34.83;;;32.83;;
56285;SDS011;42191;47.562;9.686;2023-04-25T12:12:44;34.58;;;32.47;;
56285;SDS011;42191;47.562;9.686;2023-04-25T12:15:11;36.45;;;34.35;;
56285;SDS011;42191;47.562;9.686;2023-04-25T12:17:40;35.42;;;33.33;;
56285;SDS011;42191;47.562;9.686;2023-04-25T12:20:10;35.90;;;33.78;;
56285;SDS011;42191;47.562;9.686;2023-04-25T12:22:48;36.65;;;34.55;;
56285;SDS011;42191;47.562;9.686;2023-04-25T12:33:33;35.17;;;32.83;;
56285;SDS011;42191;47.562;9.686;2023-04-25T12:36:00;32.22;;;30.33;;
56285;SDS011;42191;47.562;9.686;2023-04-25T12:38:37;34.38;;;32.38;;
56285;SDS011;42191;47.562;9.686;2023-04-25T12:41:04;34.92;;;32.83;;
56285;SDS011;42191;47.562;9.686;2023-04-25T12:43:31;34.50;;;32.50;;
56285;SDS011;42191;47.562;9.686;2023-04-25T12:45:57;32.45;;;30.55;;
56285;SDS011;42191;47.562;9.686;2023-04-25T12:48:23;34.53;;;32.53;;
56285;SDS011;42191;47.562;9.686;2023-04-25T12:50:50;35.30;;;33.20;;
56285;SDS011;42191;47.562;9.686;2023-04-25T12:53:17;33.92;;;31.92;;
56285;SDS011;42191;47.562;9.686;2023-04-25T12:55:47;35.97;;;33.88;;
56285;SDS011;42191;47.562;9.686;2023-04-25T12:58:14;35.80;;;33.58;;
56285;SDS011;42191;47.562;9.686;2023-04-25T13:00:41;37.00;;;34.85;;
56285;SDS011;42191;47.562;9.686;2023-04-25T13:03:08;35.55;;;33.47;;
56285;SDS011;42191;47.562;9.686;2023-04-25T13:05:36;34.75;;;32.72;;
56285;SDS011;42191;47.562;9.686;2023-04-25T13:08:02;34.42;;;32.42;;
56285;SDS011;42191;47.562;9.686;2023-04-25T13:10:29;35.45;;;33.35;;
56285;SDS011;42191;47.562;9.686;2023-04-25T13:12:55;35.72;;;33.63;;
56285;SDS011;42191;47.562;9.686;2023-04-25T13:15:21;36.53;;;34.33;;
56285;SDS011;42191;47.562;9.686;2023-04-25T13:17:48;36.13;;;33.95;;
56285;SDS011;42191;47.562;9.686;2023-04-25T13:20:14;34.13;;;32.13;;
56285;SDS011;42191;47.562;9.686;2023-04-25T13:22:41;35.55;;;33.45;;
56285;SDS011;42191;47.562;9.686;2023-04-25T13:25:08;35.03;;;33.03;;
56285;SDS011;42191;47.562;9.686;2023-04-25T13:27:34;35.50;;;33.40;;
56285;SDS011;42191;47.562;9.686;2023-04-25T13:30:01;35.38;;;33.28;;
56285;SDS011;42191;47.562;9.686;2023-04-25T13:32:32;35.22;;;33.20;;
56285;SDS011;42191;47.562;9.686;2023-04-25T13:35:00;35.65;;;33.55;;
56285;SDS011;42191;47.562;9.686;2023-04-25T13:37:31;34.20;;;32.20;;
56285;SDS011;42191;47.562;9.686;2023-04-25T13:40:04;32.05;;;30.05;;
56285;SDS011;42191;47.562;9.686;2023-04-25T13:42:34;30.92;;;29.13;;
56285;SDS011;42191;47.562;9.686;2023-04-25T13:45:01;31.00;;;29.20;;
56285;SDS011;42191;47.562;9.686;2023-04-25T13:47:28;30.30;;;28.55;;
56285;SDS011;42191;47.562;9.686;2023-04-25T13:49:55;29.38;;;27.67;;
56285;SDS011;42191;47.562;9.686;2023-04-25T13:52:21;28.75;;;27.05;;
56285;SDS011;42191;47.562;9.686;2023-04-25T13:54:49;28.85;;;27.15;;
56285;SDS011;42191;47.562;9.686;2023-04-25T13:57:16;28.35;;;26.75;;
56285;SDS011;42191;47.562;9.686;2023-04-25T13:59:42;27.50;;;25.90;;
56285;SDS011;42191;47.562;9.686;2023-04-25T14:02:08;27.95;;;26.35;;
56285;SDS011;42191;47.562;9.686;2023-04-25T14:04:35;31.67;;;29.77;;
56285;SDS011;42191;47.562;9.686;2023-04-25T14:07:02;30.15;;;28.35;;
56285;SDS011;42191;47.562;9.686;2023-04-25T14:09:28;30.55;;;28.75;;
56285;SDS011;42191;47.562;9.686;2023-04-25T14:11:55;29.63;;;27.80;;
56285;SDS011;42191;47.562;9.686;2023-04-25T14:14:21;31.90;;;30.08;;
56285;SDS011;42191;47.562;9.686;2023-04-25T14:16:48;31.73;;;29.92;;
56285;SDS011;42191;47.562;9.686;2023-04-25T14:19:16;32.42;;;30.52;;
56285;SDS011;42191;47.562;9.686;2023-04-25T14:21:42;31.42;;;29.63;;
56285;SDS011;42191;47.562;9.686;2023-04-25T14:24:08;32.35;;;30.45;;
56285;SDS011;42191;47.562;9.686;2023-04-25T14:26:38;33.90;;;31.80;;
56285;SDS011;42191;47.562;9.686;2023-04-25T14:29:05;32.00;;;30.13;;
56285;SDS011;42191;47.562;9.686;2023-04-25T14:31:33;34.47;;;32.47;;
56285;SDS011;42191;47.562;9.686;2023-04-25T14:34:00;32.83;;;30.92;;
56285;SDS011;42191;47.562;9.686;2023-04-25T14:36:29;33.45;;;31.45;;
56285;SDS011;42191;47.562;9.686;2023-04-25T14:38:56;33.97;;;31.98;;
56285;SDS011;42191;47.562;9.686;2023-04-25T14:41:24;33.72;;;31.73;;
56285;SDS011;42191;47.562;9.686;2023-04-25T14:43:50;32.85;;;30.88;;
56285;SDS011;42191;47.562;9.686;2023-04-25T14:46:21;33.70;;;31.70;;
56285;SDS011;42191;47.562;9.686;2023-04-25T14:48:48;34.03;;;32.03;;
56285;SDS011;42191;47.562;9.686;2023-04-25T14:51:14;33.45;;;31.50;;
56285;SDS011;42191;47.562;9.686;2023-04-25T14:53:41;34.80;;;32.70;;